Time;durP1;ratioP1;P1;durP2;ratioP2;P2;SDS_P1;SDS_P2;PMS_P1;PMS_P2;Temp;Humidity;BMP_temperature;BMP_pressure;BME280_temperature;BME280_humidity;BME280_pressure;Samples;Min_cycle;Max_cycle;Signal;HPM_P1;HPM_P2
2022/04/16 00:00:12;;;;;;;;;;;13.40;99.90;;;;;;5070732;28;19924;-47
2022/04/16 00:02:39;;;;;;;;;;;13.20;99.90;;;;;;5072692;28;19924;-49
2022/04/16 00:05:06;;;;;;;;;;;12.90;99.90;;;;;;5072350;28;19925;-48
2022/04/16 00:07:33;;;;;;;;;;;12.90;99.90;;;;;;5072245;28;19998;-50
2022/04/16 00:10:02;;;;;;;;;;;12.90;99.90;;;;;;5068938;28;19928;-47
2022/04/16 00:12:28;;;;;;;;;;;12.90;99.90;;;;;;5071599;28;19924;-47
2022/04/16 00:14:55;;;;;;;;;;;12.80;99.90;;;;;;5072064;28;20365;-49
2022/04/16 00:17:22;;;;;;;;;;;13.00;99.90;;;;;;5072654;28;19925;-48
2022/04/16 00:19:49;;;;;;;;;;;12.90;99.90;;;;;;5071981;28;19932;-49
2022/04/16 00:22:16;;;;;;;;;;;12.90;99.90;;;;;;5069544;28;19924;-48
2022/04/16 00:24:43;;;;;;;;;;;12.80;99.90;;;;;;5071809;28;19928;-48
2022/04/16 00:27:11;;;;;;;;;;;12.70;99.90;;;;;;5072265;28;19924;-49
2022/04/16 00:29:38;;;;;;;;;;;12.60;99.90;;;;;;5067048;28;19955;-48
2022/04/16 00:32:06;;;;;;;;;;;12.60;99.90;;;;;;5071350;28;19924;-47
2022/04/16 00:34:33;;;;;;;;;;;12.60;99.90;;;;;;5071972;28;19924;-48
2022/04/16 00:37:00;;;;;;;;;;;12.50;99.90;;;;;;5072539;28;19994;-47
2022/04/16 00:39:26;;;;;;;;;;;12.40;99.90;;;;;;5072049;28;19925;-48
2022/04/16 00:41:53;;;;;;;;;;;12.50;99.90;;;;;;5071966;28;20341;-48
2022/04/16 00:44:21;;;;;;;;;;;12.30;99.90;;;;;;5071848;28;19924;-49
2022/04/16 00:46:48;;;;;;;;;;;12.40;99.90;;;;;;5071575;28;20399;-49
2022/04/16 00:49:15;;;;;;;;;;;12.40;99.90;;;;;;5071905;28;20527;-48
2022/04/16 00:51:45;;;;;;;;;;;12.40;99.90;;;;;;5072184;28;19986;-47
2022/04/16 00:54:12;;;;;;;;;;;12.30;99.90;;;;;;5071802;28;19930;-47
2022/04/16 00:56:39;;;;;;;;;;;12.20;99.90;;;;;;5072062;28;19977;-48
2022/04/16 00:59:06;;;;;;;;;;;12.20;99.90;;;;;;5071902;28;19924;-48
2022/04/16 01:01:34;;;;;;;;;;;12.20;99.90;;;;;;5064364;28;19925;-48
2022/04/16 01:04:01;;;;;;;;;;;12.00;99.90;;;;;;5055447;28;19928;-49
2022/04/16 01:06:35;;;;;;;;;;;12.10;99.90;;;;;;5071971;28;19924;-47
2022/04/16 01:09:02;;;;;;;;;;;12.20;99.90;;;;;;5072065;28;19971;-47
2022/04/16 01:11:29;;;;;;;;;;;12.10;99.90;;;;;;5071828;28;19978;-49
2022/04/16 01:13:56;;;;;;;;;;;12.00;99.90;;;;;;5071469;28;19929;-48
2022/04/16 01:16:23;;;;;;;;;;;12.00;99.90;;;;;;5072111;28;19928;-47
2022/04/16 01:18:51;;;;;;;;;;;11.90;99.90;;;;;;5071594;28;19986;-48
2022/04/16 01:21:18;;;;;;;;;;;12.00;99.90;;;;;;5071738;28;19925;-47
2022/04/16 01:23:46;;;;;;;;;;;11.90;99.90;;;;;;5071394;28;19929;-49
2022/04/16 01:26:14;;;;;;;;;;;12.00;99.90;;;;;;5071492;28;19978;-48
2022/04/16 01:28:41;;;;;;;;;;;11.90;99.90;;;;;;5071448;28;19924;-48
2022/04/16 01:31:07;;;;;;;;;;;11.80;99.90;;;;;;5071710;28;19946;-48
2022/04/16 01:33:37;;;;;;;;;;;11.60;99.90;;;;;;5071627;28;19929;-48
2022/04/16 01:36:05;;;;;;;;;;;11.70;99.90;;;;;;5071656;28;19925;-47
2022/04/16 01:38:31;;;;;;;;;;;11.70;99.90;;;;;;5071448;28;19928;-49
2022/04/16 01:41:00;;;;;;;;;;;11.70;99.90;;;;;;5071244;28;19924;-47
2022/04/16 01:43:26;;;;;;;;;;;11.70;99.90;;;;;;5071359;28;19936;-47
2022/04/16 01:45:53;;;;;;;;;;;11.60;99.90;;;;;;5071253;28;19970;-47
2022/04/16 01:48:21;;;;;;;;;;;11.60;99.90;;;;;;5071456;28;19932;-48
2022/04/16 01:50:48;;;;;;;;;;;11.60;99.90;;;;;;5071427;28;20416;-49
2022/04/16 01:53:16;;;;;;;;;;;11.50;99.90;;;;;;5071407;28;19925;-47
2022/04/16 01:55:43;;;;;;;;;;;11.50;99.90;;;;;;5070930;28;19932;-47
2022/04/16 01:58:11;;;;;;;;;;;11.60;99.90;;;;;;5071553;28;19928;-48
2022/04/16 02:00:39;;;;;;;;;;;11.40;99.90;;;;;;5074934;28;20293;-48
2022/04/16 02:03:07;;;;;;;;;;;11.10;99.90;;;;;;5075074;28;19971;-49
2022/04/16 02:05:34;;;;;;;;;;;10.90;99.90;;;;;;5074870;28;19928;-47
2022/04/16 02:08:01;;;;;;;;;;;11.00;99.90;;;;;;5075060;28;19970;-48
2022/04/16 02:10:27;;;;;;;;;;;11.10;99.90;;;;;;5074679;28;19977;-48
2022/04/16 02:12:54;;;;;;;;;;;10.90;99.90;;;;;;5074683;28;19985;-49
2022/04/16 02:15:22;;;;;;;;;;;10.90;99.90;;;;;;5074529;28;19924;-47
2022/04/16 02:17:51;;;;;;;;;;;11.00;99.90;;;;;;5074850;28;20329;-47
2022/04/16 02:20:18;;;;;;;;;;;10.80;99.90;;;;;;5074642;28;19925;-47
2022/04/16 02:22:45;;;;;;;;;;;10.80;99.90;;;;;;5074532;28;19978;-48
2022/04/16 02:25:13;;;;;;;;;;;10.80;99.90;;;;;;5074421;28;19950;-47
2022/04/16 02:27:40;;;;;;;;;;;10.60;99.90;;;;;;5074746;28;20394;-48
2022/04/16 02:30:07;;;;;;;;;;;10.50;99.90;;;;;;5074348;28;19924;-48
2022/04/16 02:32:38;;;;;;;;;;;10.50;99.90;;;;;;5074335;28;19939;-49
2022/04/16 02:35:05;;;;;;;;;;;10.50;99.90;;;;;;5073270;28;19931;-48
2022/04/16 02:37:31;;;;;;;;;;;10.40;99.90;;;;;;5074563;28;19970;-47
2022/04/16 02:39:58;;;;;;;;;;;10.50;99.90;;;;;;5074242;28;20378;-49
2022/04/16 02:42:25;;;;;;;;;;;10.50;99.90;;;;;;5074156;28;19924;-48
2022/04/16 02:47:36;;;;;;;;;;;10.40;99.90;;;;;;5074464;28;19931;-48
2022/04/16 02:50:04;;;;;;;;;;;10.30;99.90;;;;;;5073980;28;19925;-49
2022/04/16 02:52:36;;;;;;;;;;;10.50;99.90;;;;;;5074089;28;20390;-48
2022/04/16 02:55:03;;;;;;;;;;;10.50;99.90;;;;;;5073739;28;19924;-48
2022/04/16 02:57:30;;;;;;;;;;;10.60;99.90;;;;;;5074414;28;20031;-48
2022/04/16 02:59:57;;;;;;;;;;;10.50;99.90;;;;;;5073947;28;19932;-48
2022/04/16 03:02:24;;;;;;;;;;;10.30;99.90;;;;;;5073762;28;20382;-48
2022/04/16 03:04:51;;;;;;;;;;;10.30;99.90;;;;;;5073920;28;19985;-47
2022/04/16 03:07:19;;;;;;;;;;;10.30;99.90;;;;;;5074189;28;19924;-48
2022/04/16 03:09:45;;;;;;;;;;;10.20;99.90;;;;;;5073198;28;19969;-47
2022/04/16 03:12:12;;;;;;;;;;;10.30;99.90;;;;;;5073262;28;19928;-47
2022/04/16 03:17:35;;;;;;;;;;;10.40;99.90;;;;;;5039366;28;19928;-48
2022/04/16 03:20:04;;;;;;;;;;;10.30;99.90;;;;;;5069873;28;20317;-48
2022/04/16 03:22:33;;;;;;;;;;;10.10;99.90;;;;;;5062044;28;20313;-49
2022/04/16 03:24:59;;;;;;;;;;;10.10;99.90;;;;;;5063390;28;20404;-48
2022/04/16 03:27:26;;;;;;;;;;;10.20;99.90;;;;;;5055565;28;19982;-48
2022/04/16 03:29:53;;;;;;;;;;;10.20;99.90;;;;;;5061423;28;20605;-48
2022/04/16 03:32:20;;;;;;;;;;;10.10;99.90;;;;;;5053526;28;19925;-48
2022/04/16 03:34:47;;;;;;;;;;;10.20;99.90;;;;;;5054791;28;19929;-47
2022/04/16 03:37:13;;;;;;;;;;;10.00;99.90;;;;;;5053553;28;19925;-50
2022/04/16 03:39:43;;;;;;;;;;;9.80;99.90;;;;;;5070981;28;19929;-48
2022/04/16 03:42:10;;;;;;;;;;;9.70;99.90;;;;;;5071683;28;20298;-48
2022/04/16 03:44:38;;;;;;;;;;;9.70;99.90;;;;;;5070574;28;19974;-47
2022/04/16 03:47:05;;;;;;;;;;;9.60;99.90;;;;;;5066014;28;19933;-48
2022/04/16 03:49:32;;;;;;;;;;;9.50;99.90;;;;;;5064052;28;19987;-49
2022/04/16 03:51:59;;;;;;;;;;;9.60;99.90;;;;;;5067995;28;21172;-48
2022/04/16 04:00:03;;;;;;;;;;;9.50;99.90;;;;;;5063543;28;20009;-59
2022/04/16 04:02:31;;;;;;;;;;;9.30;99.90;;;;;;5067842;28;19929;-60
2022/04/16 04:04:58;;;;;;;;;;;9.40;99.90;;;;;;5072571;28;19925;-59
2022/04/16 04:07:25;;;;;;;;;;;9.60;99.90;;;;;;5070326;28;20438;-58
2022/04/16 04:09:52;;;;;;;;;;;9.50;99.90;;;;;;5068919;28;20519;-58
2022/04/16 04:12:24;;;;;;;;;;;9.60;99.90;;;;;;5069001;28;20508;-59
2022/04/16 04:14:50;;;;;;;;;;;9.50;99.90;;;;;;5067411;28;19928;-59
2022/04/16 04:17:17;;;;;;;;;;;9.50;99.90;;;;;;5070866;28;19924;-59
2022/04/16 04:19:45;;;;;;;;;;;9.60;99.90;;;;;;5071116;28;19928;-60
2022/04/16 04:22:12;;;;;;;;;;;9.50;99.90;;;;;;5062352;28;19978;-59
2022/04/16 04:24:39;;;;;;;;;;;9.60;99.90;;;;;;5070621;28;19929;-59
2022/04/16 04:27:07;;;;;;;;;;;9.40;99.90;;;;;;5071615;28;20413;-59
2022/04/16 04:29:36;;;;;;;;;;;9.30;99.90;;;;;;5071729;28;19924;-58
2022/04/16 04:32:05;;;;;;;;;;;9.30;99.90;;;;;;5069153;28;19924;-59
2022/04/16 04:34:32;;;;;;;;;;;9.30;99.90;;;;;;5068795;28;20413;-58
2022/04/16 04:36:59;;;;;;;;;;;9.30;99.90;;;;;;5071985;28;19929;-59
2022/04/16 04:39:25;;;;;;;;;;;9.40;99.90;;;;;;5071999;28;19924;-59
2022/04/16 04:41:52;;;;;;;;;;;9.30;99.90;;;;;;5071687;28;20287;-59
2022/04/16 04:44:19;;;;;;;;;;;9.40;99.90;;;;;;5072305;28;19924;-59
2022/04/16 04:46:47;;;;;;;;;;;9.40;99.90;;;;;;5070758;28;20001;-58
2022/04/16 04:49:14;;;;;;;;;;;9.40;99.90;;;;;;5071438;28;20007;-59
2022/04/16 04:51:41;;;;;;;;;;;9.50;99.90;;;;;;5072103;28;19928;-60
2022/04/16 04:54:08;;;;;;;;;;;9.50;99.90;;;;;;5072726;28;20004;-59
2022/04/16 04:56:35;;;;;;;;;;;9.50;99.90;;;;;;5065009;28;19947;-59
2022/04/16 04:59:02;;;;;;;;;;;9.50;99.90;;;;;;5064718;28;19970;-59
2022/04/16 05:01:29;;;;;;;;;;;9.60;99.90;;;;;;5057979;28;19925;-58
2022/04/16 05:03:57;;;;;;;;;;;9.60;99.90;;;;;;5053359;28;19978;-59
2022/04/16 05:06:24;;;;;;;;;;;9.80;99.90;;;;;;5070156;28;19928;-59
2022/04/16 05:08:51;;;;;;;;;;;9.80;99.90;;;;;;5067398;28;19932;-60
2022/04/16 05:11:18;;;;;;;;;;;9.70;99.90;;;;;;5068493;28;19925;-59
2022/04/16 05:13:45;;;;;;;;;;;9.70;99.90;;;;;;5063388;28;19925;-59
2022/04/16 05:16:13;;;;;;;;;;;9.80;99.90;;;;;;5051831;28;19994;-59
2022/04/16 05:18:39;;;;;;;;;;;9.90;99.90;;;;;;5055748;28;19925;-59
2022/04/16 05:21:07;;;;;;;;;;;10.20;99.90;;;;;;5068312;28;19982;-61
2022/04/16 05:23:35;;;;;;;;;;;10.30;99.90;;;;;;5056883;28;19924;-58
2022/04/16 05:26:02;;;;;;;;;;;10.40;99.90;;;;;;5052067;28;20030;-59
2022/04/16 05:28:29;;;;;;;;;;;10.60;99.90;;;;;;5053973;28;19924;-59
2022/04/16 05:30:58;;;;;;;;;;;10.80;99.90;;;;;;5054065;28;19925;-59
2022/04/16 05:36:10;;;;;;;;;;;12.80;99.90;;;;;;5061606;28;20435;-60
2022/04/16 05:38:37;;;;;;;;;;;14.10;99.90;;;;;;5074450;28;19993;-59
2022/04/16 05:41:04;;;;;;;;;;;14.70;99.90;;;;;;5074398;28;19994;-61
2022/04/16 05:43:30;;;;;;;;;;;15.10;99.90;;;;;;5071090;28;20452;-60
2022/04/16 05:45:57;;;;;;;;;;;14.60;99.90;;;;;;5067777;28;20439;-58
2022/04/16 05:48:24;;;;;;;;;;;13.70;99.90;;;;;;5063613;28;19933;-58
2022/04/16 05:50:51;;;;;;;;;;;13.90;99.90;;;;;;5072064;28;19936;-60
2022/04/16 05:53:19;;;;;;;;;;;13.80;99.90;;;;;;5073880;28;20289;-59
2022/04/16 05:55:46;;;;;;;;;;;14.80;99.90;;;;;;5071191;28;19924;-60
2022/04/16 05:58:13;;;;;;;;;;;15.30;99.90;;;;;;5067445;28;19925;-60
2022/04/16 06:00:40;;;;;;;;;;;15.70;99.90;;;;;;5065190;28;19985;-61
2022/04/16 06:03:07;;;;;;;;;;;15.20;99.90;;;;;;5070195;28;19925;-60
2022/04/16 06:05:34;;;;;;;;;;;15.30;99.90;;;;;;5066340;28;19932;-59
2022/04/16 06:08:01;;;;;;;;;;;15.50;99.90;;;;;;5073359;28;19928;-59
2022/04/16 06:10:29;;;;;;;;;;;14.80;99.90;;;;;;5071031;28;20058;-59
2022/04/16 06:12:56;;;;;;;;;;;13.30;99.90;;;;;;5068147;28;19931;-59
2022/04/16 06:15:23;;;;;;;;;;;12.80;99.90;;;;;;5060622;28;19924;-60
2022/04/16 06:17:49;;;;;;;;;;;12.00;99.90;;;;;;5073640;28;19925;-60
2022/04/16 06:20:16;;;;;;;;;;;11.90;99.90;;;;;;5069212;28;19924;-59
2022/04/16 06:22:43;;;;;;;;;;;12.00;99.90;;;;;;5065183;28;20344;-60
2022/04/16 06:25:10;;;;;;;;;;;12.00;99.90;;;;;;5067967;28;19935;-60
2022/04/16 06:27:39;;;;;;;;;;;12.50;99.90;;;;;;5066596;28;19928;-60
2022/04/16 06:30:07;;;;;;;;;;;12.60;99.90;;;;;;5070989;28;19932;-60
2022/04/16 06:32:34;;;;;;;;;;;12.90;99.90;;;;;;5071614;28;19933;-59
2022/04/16 06:35:01;;;;;;;;;;;12.90;99.90;;;;;;5063839;28;19932;-60
2022/04/16 06:37:29;;;;;;;;;;;13.30;99.90;;;;;;5065603;28;19924;-59
2022/04/16 06:39:56;;;;;;;;;;;14.70;99.90;;;;;;5066959;28;19951;-59
2022/04/16 06:42:22;;;;;;;;;;;15.50;99.90;;;;;;5061933;28;19925;-60
2022/04/16 06:44:51;;;;;;;;;;;16.60;99.90;;;;;;5055181;28;20002;-60
2022/04/16 06:47:17;;;;;;;;;;;17.30;99.90;;;;;;5064386;28;19925;-60
2022/04/16 06:49:44;;;;;;;;;;;17.60;99.90;;;;;;5060401;28;19951;-61
2022/04/16 06:52:12;;;;;;;;;;;16.30;99.90;;;;;;5064462;28;19924;-59
2022/04/16 06:54:39;;;;;;;;;;;16.60;99.90;;;;;;5073251;28;19962;-60
2022/04/16 06:57:06;;;;;;;;;;;17.70;99.90;;;;;;5072922;28;19970;-59
2022/04/16 06:59:32;;;;;;;;;;;17.90;99.90;;;;;;5072171;28;19990;-60
2022/04/16 07:02:01;;;;;;;;;;;17.90;99.90;;;;;;5064116;28;20372;-61
2022/04/16 07:04:27;;;;;;;;;;;16.90;99.90;;;;;;5072927;28;19924;-61
2022/04/16 07:06:54;;;;;;;;;;;16.00;99.90;;;;;;5069986;28;19940;-60
2022/04/16 07:09:21;;;;;;;;;;;16.20;99.90;;;;;;5060926;28;19970;-60
2022/04/16 07:11:47;;;;;;;;;;;16.20;99.90;;;;;;5052467;28;20335;-60
2022/04/16 07:14:14;;;;;;;;;;;15.80;99.90;;;;;;5052840;28;19925;-59
2022/04/16 07:16:41;;;;;;;;;;;14.70;99.90;;;;;;5060925;28;19928;-59
2022/04/16 07:19:10;;;;;;;;;;;14.80;99.90;;;;;;5063969;28;19925;-60
2022/04/16 07:21:37;;;;;;;;;;;13.50;99.90;;;;;;5065089;28;20431;-60
2022/04/16 07:24:04;;;;;;;;;;;13.10;99.90;;;;;;5060349;28;19939;-59
2022/04/16 07:26:31;;;;;;;;;;;12.70;99.90;;;;;;5063925;28;19925;-58
2022/04/16 07:28:58;;;;;;;;;;;12.70;99.90;;;;;;5063794;28;19924;-58
2022/04/16 07:31:25;;;;;;;;;;;12.50;99.90;;;;;;5065580;28;19947;-60
2022/04/16 07:33:51;;;;;;;;;;;12.40;99.90;;;;;;5063981;28;20452;-60
2022/04/16 07:36:19;;;;;;;;;;;12.70;99.90;;;;;;5064422;28;19928;-60
2022/04/16 07:38:46;;;;;;;;;;;13.00;99.90;;;;;;5063550;28;19924;-59
2022/04/16 07:41:13;;;;;;;;;;;13.20;99.90;;;;;;5064522;28;20004;-60
2022/04/16 07:43:39;;;;;;;;;;;14.40;99.90;;;;;;5065155;28;20392;-58
2022/04/16 07:46:06;;;;;;;;;;;13.90;99.90;;;;;;5062902;28;19989;-60
2022/04/16 07:48:34;;;;;;;;;;;13.90;99.90;;;;;;5064419;28;20294;-58
2022/04/16 07:51:00;;;;;;;;;;;15.00;99.90;;;;;;5064798;28;20432;-61
2022/04/16 07:53:30;;;;;;;;;;;15.10;99.90;;;;;;5063405;28;19993;-59
2022/04/16 07:55:56;;;;;;;;;;;15.10;99.90;;;;;;5066676;28;19940;-60
2022/04/16 07:58:24;;;;;;;;;;;14.70;99.90;;;;;;5062909;28;19978;-58
2022/04/16 08:00:51;;;;;;;;;;;14.40;99.90;;;;;;5064772;28;20007;-61
2022/04/16 08:03:18;;;;;;;;;;;14.00;99.90;;;;;;5064947;28;19985;-58
2022/04/16 08:05:45;;;;;;;;;;;13.90;99.90;;;;;;5057056;28;19982;-59
2022/04/16 08:08:11;;;;;;;;;;;13.70;99.90;;;;;;5069777;28;20411;-59
2022/04/16 08:10:39;;;;;;;;;;;13.80;99.90;;;;;;5072195;28;20394;-58
2022/04/16 08:13:07;;;;;;;;;;;13.90;99.90;;;;;;5068889;28;20306;-59
2022/04/16 08:15:35;;;;;;;;;;;13.70;99.90;;;;;;5065694;28;20022;-58
2022/04/16 08:18:01;;;;;;;;;;;13.50;99.90;;;;;;5063049;28;19986;-59
2022/04/16 08:20:32;;;;;;;;;;;13.60;99.90;;;;;;5069868;28;20352;-60
2022/04/16 08:22:59;;;;;;;;;;;13.80;99.90;;;;;;5065534;28;20473;-58
2022/04/16 08:28:11;;;;;;;;;;;13.40;99.90;;;;;;5071952;28;20006;-58
2022/04/16 08:30:38;;;;;;;;;;;13.30;99.90;;;;;;5066881;28;19932;-59
2022/04/16 08:33:05;;;;;;;;;;;13.50;99.90;;;;;;5061071;28;19986;-58
2022/04/16 08:35:32;;;;;;;;;;;13.90;99.90;;;;;;5061322;28;19925;-58
2022/04/16 08:37:58;;;;;;;;;;;14.10;99.90;;;;;;5062959;28;19986;-59
2022/04/16 08:40:25;;;;;;;;;;;14.40;99.90;;;;;;5061847;28;19925;-60
2022/04/16 08:42:52;;;;;;;;;;;14.40;99.90;;;;;;5065600;28;19928;-58
2022/04/16 08:45:20;;;;;;;;;;;14.40;99.90;;;;;;5063665;28;20313;-57
2022/04/16 08:47:47;;;;;;;;;;;14.80;99.90;;;;;;5062938;28;20478;-58
2022/04/16 08:50:14;;;;;;;;;;;15.00;99.90;;;;;;5064691;28;19928;-59
2022/04/16 08:52:42;;;;;;;;;;;15.40;99.90;;;;;;5062714;28;19929;-59
2022/04/16 08:55:10;;;;;;;;;;;15.30;99.90;;;;;;5062885;28;19986;-58
2022/04/16 08:57:37;;;;;;;;;;;15.10;99.90;;;;;;5062771;28;20026;-59
2022/04/16 09:00:04;;;;;;;;;;;15.20;99.90;;;;;;5062188;28;19991;-60
2022/04/16 09:02:32;;;;;;;;;;;15.20;99.90;;;;;;5061660;28;20384;-59
2022/04/16 09:05:03;;;;;;;;;;;15.40;99.90;;;;;;5060386;28;20387;-61
2022/04/16 09:07:31;;;;;;;;;;;16.00;99.90;;;;;;5065331;28;19925;-58
2022/04/16 09:10:06;;;;;;;;;;;17.10;99.90;;;;;;5068776;28;19931;-58
2022/04/16 09:12:36;;;;;;;;;;;16.60;99.90;;;;;;5065178;28;19929;-59
2022/04/16 09:15:06;;;;;;;;;;;15.60;99.90;;;;;;5058723;28;20836;-60
2022/04/16 09:17:37;;;;;;;;;;;14.80;99.90;;;;;;5063962;28;19935;-59
2022/04/16 09:20:17;;;;;;;;;;;14.40;99.90;;;;;;5068155;28;20008;-59
2022/04/16 09:22:49;;;;;;;;;;;14.20;99.90;;;;;;5065989;28;19925;-59
2022/04/16 09:25:17;;;;;;;;;;;14.40;99.90;;;;;;5070629;28;20011;-59
2022/04/16 09:27:45;;;;;;;;;;;14.10;99.90;;;;;;5061589;28;19935;-59
2022/04/16 09:30:12;;;;;;;;;;;14.00;99.90;;;;;;5069503;28;19983;-60
2022/04/16 09:32:44;;;;;;;;;;;14.00;99.90;;;;;;5066425;28;20400;-59
2022/04/16 09:35:24;;;;;;;;;;;14.00;99.90;;;;;;5058785;28;19932;-59
2022/04/16 09:37:51;;;;;;;;;;;14.10;99.90;;;;;;5063786;28;19924;-60
2022/04/16 09:40:18;;;;;;;;;;;14.30;99.90;;;;;;5058121;28;19925;-60
2022/04/16 09:42:51;;;;;;;;;;;14.50;99.90;;;;;;5056340;28;19986;-59
2022/04/16 09:45:18;;;;;;;;;;;14.70;99.90;;;;;;5062983;28;19970;-59
2022/04/16 09:47:49;;;;;;;;;;;14.90;99.90;;;;;;5069092;28;20515;-59
2022/04/16 09:50:16;;;;;;;;;;;14.40;99.90;;;;;;5057097;28;20011;-59
2022/04/16 09:52:43;;;;;;;;;;;14.60;99.90;;;;;;5066422;28;19924;-60
2022/04/16 09:55:11;;;;;;;;;;;14.60;99.90;;;;;;5066821;28;19929;-59
2022/04/16 10:00:06;;;;;;;;;;;14.60;99.90;;;;;;5047545;28;19929;-50
2022/04/16 10:02:36;;;;;;;;;;;14.60;99.90;;;;;;5049961;28;20441;-48
2022/04/16 10:05:05;;;;;;;;;;;14.40;99.90;;;;;;5049983;28;20043;-49
2022/04/16 10:07:32;;;;;;;;;;;14.60;99.90;;;;;;5045240;28;19925;-48
2022/04/16 10:09:59;;;;;;;;;;;14.90;99.90;;;;;;5042114;28;19971;-49
2022/04/16 10:15:12;;;;;;;;;;;15.10;99.90;;;;;;5048828;28;20521;-48
2022/04/16 10:17:42;;;;;;;;;;;15.30;99.90;;;;;;5050256;28;20383;-50
2022/04/16 10:20:11;;;;;;;;;;;16.00;99.90;;;;;;5052329;28;19978;-48
2022/04/16 10:22:39;;;;;;;;;;;16.10;99.90;;;;;;5053602;28;19972;-47
2022/04/16 10:25:06;;;;;;;;;;;16.30;99.90;;;;;;5054433;28;20321;-50
2022/04/16 10:27:33;;;;;;;;;;;16.50;99.90;;;;;;5053696;28;19928;-48
2022/04/16 10:30:00;;;;;;;;;;;16.80;99.90;;;;;;5053375;28;19933;-50
2022/04/16 10:32:28;;;;;;;;;;;16.70;99.90;;;;;;5051058;28;19924;-49
2022/04/16 10:35:02;;;;;;;;;;;17.30;99.90;;;;;;5057197;28;19925;-49
2022/04/16 10:37:37;;;;;;;;;;;17.80;99.90;;;;;;5062329;28;20349;-49
2022/04/16 10:40:14;;;;;;;;;;;18.70;99.90;;;;;;5054588;28;20037;-49
2022/04/16 10:42:47;;;;;;;;;;;18.90;99.90;;;;;;5053226;28;19929;-49
2022/04/16 10:45:14;;;;;;;;;;;19.00;99.90;;;;;;5051350;28;19924;-49
2022/04/16 10:47:41;;;;;;;;;;;18.70;99.90;;;;;;5054118;28;19971;-50
2022/04/16 10:50:08;;;;;;;;;;;18.30;99.90;;;;;;5050511;28;19935;-49
2022/04/16 10:52:36;;;;;;;;;;;18.50;99.90;;;;;;5054117;28;19972;-49
2022/04/16 10:55:06;;;;;;;;;;;18.50;99.90;;;;;;5052604;28;19978;-49
2022/04/16 10:57:33;;;;;;;;;;;18.20;99.90;;;;;;5053571;28;19925;-48
2022/04/16 11:00:12;;;;;;;;;;;17.70;99.90;;;;;;5046737;28;19933;-50
2022/04/16 11:02:38;;;;;;;;;;;17.30;99.90;;;;;;5053342;28;19951;-51
2022/04/16 11:05:06;;;;;;;;;;;16.60;99.90;;;;;;5049466;28;20055;-48
2022/04/16 11:07:35;;;;;;;;;;;16.00;99.90;;;;;;5045277;28;19925;-49
2022/04/16 11:10:03;;;;;;;;;;;15.90;99.90;;;;;;5050463;28;19967;-49
2022/04/16 11:12:30;;;;;;;;;;;15.90;99.90;;;;;;5052530;28;19925;-49
2022/04/16 11:14:56;;;;;;;;;;;16.10;99.90;;;;;;5044327;28;19926;-50
2022/04/16 11:17:24;;;;;;;;;;;16.70;99.90;;;;;;5053310;28;19925;-52
2022/04/16 11:19:59;;;;;;;;;;;16.90;99.90;;;;;;5044972;28;20398;-50
2022/04/16 11:22:26;;;;;;;;;;;16.90;99.90;;;;;;5053485;28;19978;-48
2022/04/16 11:24:53;;;;;;;;;;;16.80;99.90;;;;;;5052229;28;20310;-50
2022/04/16 11:35:54;;;;;;;;;;;16.60;99.90;;;;;;5053230;28;19928;-49
2022/04/16 11:38:24;;;;;;;;;;;17.00;99.90;;;;;;5053249;28;19925;-49
2022/04/16 11:40:52;;;;;;;;;;;17.60;99.90;;;;;;5053043;28;19983;-48
2022/04/16 11:43:22;;;;;;;;;;;17.60;99.90;;;;;;5052880;28;20356;-49
2022/04/16 11:45:49;;;;;;;;;;;17.80;99.90;;;;;;5044830;28;20567;-49
2022/04/16 11:48:16;;;;;;;;;;;17.40;99.10;;;;;;5051783;28;20333;-49
2022/04/16 11:50:43;;;;;;;;;;;17.00;99.90;;;;;;5051613;28;19924;-50
2022/04/16 11:53:11;;;;;;;;;;;17.00;99.90;;;;;;5050945;28;19925;-48
2022/04/16 11:55:45;;;;;;;;;;;17.10;99.90;;;;;;5049248;28;20457;-49
2022/04/16 11:58:11;;;;;;;;;;;16.90;99.50;;;;;;5050178;28;19925;-50
2022/04/16 12:00:49;;;;;;;;;;;16.60;97.90;;;;;;5051812;28;19925;-48
2022/04/16 12:03:16;;;;;;;;;;;16.40;99.50;;;;;;5044659;28;19947;-49
2022/04/16 12:05:43;;;;;;;;;;;16.20;99.90;;;;;;5051276;28;19925;-48
2022/04/16 12:08:29;;;;;;;;;;;16.70;99.90;;;;;;5050456;28;19925;-49
2022/04/16 12:10:56;;;;;;;;;;;16.70;99.90;;;;;;5048840;28;20288;-50
2022/04/16 12:13:23;;;;;;;;;;;17.10;99.90;;;;;;5050503;28;19933;-50
2022/04/16 12:15:51;;;;;;;;;;;17.40;99.90;;;;;;5043394;28;19994;-50
2022/04/16 12:18:19;;;;;;;;;;;17.70;99.90;;;;;;5051878;28;19930;-50
2022/04/16 12:20:48;;;;;;;;;;;17.70;98.80;;;;;;5052037;28;19960;-50
2022/04/16 12:23:20;;;;;;;;;;;17.50;98.10;;;;;;5052142;28;19925;-48
2022/04/16 12:25:47;;;;;;;;;;;17.00;98.60;;;;;;5051984;28;19924;-49
2022/04/16 12:28:14;;;;;;;;;;;16.60;98.30;;;;;;5052515;28;19928;-48
2022/04/16 12:30:41;;;;;;;;;;;16.70;98.60;;;;;;5051242;28;19931;-49
2022/04/16 12:33:11;;;;;;;;;;;16.70;99.80;;;;;;5050106;28;19986;-48
2022/04/16 12:35:38;;;;;;;;;;;16.30;99.80;;;;;;5051819;28;20011;-49
2022/04/16 12:38:05;;;;;;;;;;;16.50;98.20;;;;;;5050645;28;19925;-48
2022/04/16 12:40:33;;;;;;;;;;;16.40;99.20;;;;;;5050963;28;19928;-51
2022/04/16 12:43:01;;;;;;;;;;;16.20;98.50;;;;;;5051413;28;20373;-50
2022/04/16 12:45:28;;;;;;;;;;;16.00;99.90;;;;;;5051758;28;19925;-48
2022/04/16 12:47:55;;;;;;;;;;;16.00;99.10;;;;;;5051497;28;19924;-48
2022/04/16 12:50:24;;;;;;;;;;;16.40;98.30;;;;;;5050270;28;19931;-48
2022/04/16 12:52:51;;;;;;;;;;;16.70;98.20;;;;;;5048968;28;19979;-48
2022/04/16 12:55:18;;;;;;;;;;;16.90;97.00;;;;;;5051197;28;20279;-48
2022/04/16 12:57:45;;;;;;;;;;;16.80;98.70;;;;;;5043492;28;19925;-49
2022/04/16 13:00:12;;;;;;;;;;;16.50;98.80;;;;;;5048792;28;19936;-49
2022/04/16 13:02:43;;;;;;;;;;;16.60;99.70;;;;;;5050999;28;20383;-47
2022/04/16 13:05:10;;;;;;;;;;;16.40;99.90;;;;;;5048937;28;19987;-48
2022/04/16 13:07:39;;;;;;;;;;;16.60;99.90;;;;;;5051521;28;19925;-49
2022/04/16 13:10:07;;;;;;;;;;;16.50;99.90;;;;;;5049722;28;19925;-48
2022/04/16 13:12:34;;;;;;;;;;;16.30;99.90;;;;;;5043464;28;20284;-49
2022/04/16 13:15:01;;;;;;;;;;;16.10;99.90;;;;;;5050487;28;19928;-50
2022/04/16 13:17:28;;;;;;;;;;;16.60;99.90;;;;;;5050863;28;19925;-48
2022/04/16 13:19:55;;;;;;;;;;;16.80;98.90;;;;;;5042075;28;20407;-51
2022/04/16 13:22:22;;;;;;;;;;;16.50;99.20;;;;;;5040315;28;19979;-49
2022/04/16 13:24:50;;;;;;;;;;;16.50;99.70;;;;;;5049066;28;19924;-49
2022/04/16 13:27:16;;;;;;;;;;;16.30;99.90;;;;;;5051753;28;19925;-48
2022/04/16 13:29:43;;;;;;;;;;;16.40;99.60;;;;;;5050522;28;19982;-49
2022/04/16 13:32:10;;;;;;;;;;;16.10;98.90;;;;;;5051161;28;19932;-49
2022/04/16 13:34:39;;;;;;;;;;;16.00;99.40;;;;;;5049037;28;19929;-50
2022/04/16 13:37:06;;;;;;;;;;;16.30;98.70;;;;;;5051925;28;19925;-49
2022/04/16 13:42:21;;;;;;;;;;;16.00;98.60;;;;;;5051117;28;19966;-50
2022/04/16 13:44:48;;;;;;;;;;;15.80;99.30;;;;;;5051084;28;19925;-49
2022/04/16 13:47:14;;;;;;;;;;;15.60;99.80;;;;;;5046023;28;19925;-48
2022/04/16 13:49:41;;;;;;;;;;;15.60;99.90;;;;;;5049994;28;19986;-50
2022/04/16 13:52:08;;;;;;;;;;;15.80;99.00;;;;;;5050311;28;19945;-49
2022/04/16 13:54:35;;;;;;;;;;;15.90;98.40;;;;;;5049961;28;19929;-49
2022/04/16 13:57:03;;;;;;;;;;;16.20;99.70;;;;;;5036599;28;19925;-48
2022/04/16 13:59:31;;;;;;;;;;;16.20;98.30;;;;;;5040178;28;19925;-49
2022/04/16 14:01:58;;;;;;;;;;;16.00;99.20;;;;;;5040582;28;19925;-50
2022/04/16 14:04:24;;;;;;;;;;;16.10;99.00;;;;;;5055037;28;20444;-49
2022/04/16 14:06:51;;;;;;;;;;;16.20;99.00;;;;;;5055315;28;19924;-48
2022/04/16 14:09:18;;;;;;;;;;;16.40;98.30;;;;;;5054921;28;19931;-48
2022/04/16 14:11:46;;;;;;;;;;;16.60;98.00;;;;;;5054817;28;20448;-47
2022/04/16 14:14:13;;;;;;;;;;;16.70;98.40;;;;;;5054451;28;20387;-48
2022/04/16 14:16:42;;;;;;;;;;;16.70;97.90;;;;;;5054713;28;20007;-48
2022/04/16 14:19:10;;;;;;;;;;;16.70;98.40;;;;;;5046602;28;19925;-48
2022/04/16 14:21:37;;;;;;;;;;;16.80;98.90;;;;;;5054063;28;19975;-48
2022/04/16 14:24:05;;;;;;;;;;;16.50;99.00;;;;;;5054070;28;19979;-47
2022/04/16 14:26:31;;;;;;;;;;;16.70;99.60;;;;;;5054874;28;19925;-48
2022/04/16 14:28:58;;;;;;;;;;;16.30;99.70;;;;;;5054385;28;19970;-47
2022/04/16 14:31:25;;;;;;;;;;;16.10;99.90;;;;;;5054492;28;19994;-47
2022/04/16 14:33:54;;;;;;;;;;;16.00;99.90;;;;;;5048221;28;19925;-48
2022/04/16 14:36:20;;;;;;;;;;;15.60;99.90;;;;;;5053556;28;20015;-49
2022/04/16 14:38:47;;;;;;;;;;;15.60;99.90;;;;;;5044836;28;20275;-47
2022/04/16 14:41:16;;;;;;;;;;;15.50;99.90;;;;;;5047258;28;19939;-48
2022/04/16 14:43:45;;;;;;;;;;;15.60;99.90;;;;;;5053792;28;19929;-47
2022/04/16 14:46:12;;;;;;;;;;;15.30;99.90;;;;;;5053371;28;19925;-48
2022/04/16 14:48:39;;;;;;;;;;;15.20;99.90;;;;;;5050545;28;19970;-47
2022/04/16 14:51:07;;;;;;;;;;;15.60;99.70;;;;;;5051080;28;19925;-47
2022/04/16 14:53:35;;;;;;;;;;;15.80;99.60;;;;;;5048394;28;19974;-48